sensor_id;sensor_type;location;lat;lon;timestamp;P1;durP1;ratioP1;P2;durP2;ratioP2
65982;SDS011;52740;40.620;-8.640;2022-07-06T00:01:02;13.38;;;5.53;;
65982;SDS011;52740;40.620;-8.640;2022-07-06T00:03:03;9.98;;;6.03;;
65982;SDS011;52740;40.620;-8.640;2022-07-06T00:05:04;11.63;;;5.35;;
65982;SDS011;52740;40.620;-8.640;2022-07-06T00:07:05;15.23;;;6.18;;
65982;SDS011;52740;40.620;-8.640;2022-07-06T00:09:06;8.13;;;4.43;;
65982;SDS011;52740;40.620;-8.640;2022-07-06T00:11:07;9.77;;;4.75;;
65982;SDS011;52740;40.620;-8.640;2022-07-06T00:13:07;9.88;;;4.53;;
65982;SDS011;52740;40.620;-8.640;2022-07-06T00:15:08;7.07;;;4.35;;
65982;SDS011;52740;40.620;-8.640;2022-07-06T00:17:09;7.88;;;4.75;;
65982;SDS011;52740;40.620;-8.640;2022-07-06T00:19:10;8.40;;;4.80;;
65982;SDS011;52740;40.620;-8.640;2022-07-06T00:21:10;7.65;;;4.78;;
65982;SDS011;52740;40.620;-8.640;2022-07-06T00:23:11;9.63;;;4.80;;
65982;SDS011;52740;40.620;-8.640;2022-07-06T00:25:12;9.38;;;4.72;;
65982;SDS011;52740;40.620;-8.640;2022-07-06T00:27:13;12.95;;;5.22;;
65982;SDS011;52740;40.620;-8.640;2022-07-06T00:29:13;10.00;;;4.47;;
65982;SDS011;52740;40.620;-8.640;2022-07-06T00:31:14;10.38;;;4.68;;
65982;SDS011;52740;40.620;-8.640;2022-07-06T00:33:15;7.78;;;4.30;;
65982;SDS011;52740;40.620;-8.640;2022-07-06T00:35:16;9.95;;;4.75;;
65982;SDS011;52740;40.620;-8.640;2022-07-06T00:37:17;11.32;;;4.63;;
65982;SDS011;52740;40.620;-8.640;2022-07-06T00:39:17;8.88;;;5.35;;
65982;SDS011;52740;40.620;-8.640;2022-07-06T00:41:19;10.30;;;5.22;;
65982;SDS011;52740;40.620;-8.640;2022-07-06T00:43:20;11.18;;;4.63;;
65982;SDS011;52740;40.620;-8.640;2022-07-06T00:45:21;9.20;;;4.88;;
65982;SDS011;52740;40.620;-8.640;2022-07-06T00:47:22;6.78;;;4.75;;
65982;SDS011;52740;40.620;-8.640;2022-07-06T00:49:22;10.48;;;4.97;;
65982;SDS011;52740;40.620;-8.640;2022-07-06T00:51:42;13.35;;;4.97;;
65982;SDS011;52740;40.620;-8.640;2022-07-06T00:53:43;5.78;;;3.33;;
65982;SDS011;52740;40.620;-8.640;2022-07-06T00:55:44;4.40;;;3.35;;
65982;SDS011;52740;40.620;-8.640;2022-07-06T00:57:46;7.45;;;4.30;;
65982;SDS011;52740;40.620;-8.640;2022-07-06T00:59:47;11.13;;;5.28;;
65982;SDS011;52740;40.620;-8.640;2022-07-06T01:01:48;10.45;;;5.35;;
65982;SDS011;52740;40.620;-8.640;2022-07-06T01:03:50;11.02;;;5.03;;
65982;SDS011;52740;40.620;-8.640;2022-07-06T01:05:50;9.63;;;4.97;;
65982;SDS011;52740;40.620;-8.640;2022-07-06T01:07:52;13.43;;;5.35;;
65982;SDS011;52740;40.620;-8.640;2022-07-06T01:09:53;9.82;;;4.72;;
65982;SDS011;52740;40.620;-8.640;2022-07-06T01:11:54;14.93;;;6.68;;
65982;SDS011;52740;40.620;-8.640;2022-07-06T01:13:55;14.50;;;4.82;;
65982;SDS011;52740;40.620;-8.640;2022-07-06T01:15:56;13.50;;;6.03;;
65982;SDS011;52740;40.620;-8.640;2022-07-06T01:17:57;13.32;;;6.72;;
65982;SDS011;52740;40.620;-8.640;2022-07-06T01:22:21;16.17;;;6.65;;
65982;SDS011;52740;40.620;-8.640;2022-07-06T01:24:22;11.85;;;6.03;;
65982;SDS011;52740;40.620;-8.640;2022-07-06T01:26:23;13.30;;;6.05;;
65982;SDS011;52740;40.620;-8.640;2022-07-06T01:28:24;12.15;;;6.00;;
65982;SDS011;52740;40.620;-8.640;2022-07-06T01:30:25;11.38;;;5.82;;
65982;SDS011;52740;40.620;-8.640;2022-07-06T01:32:25;18.15;;;6.20;;
65982;SDS011;52740;40.620;-8.640;2022-07-06T01:34:28;16.58;;;5.90;;
65982;SDS011;52740;40.620;-8.640;2022-07-06T01:36:28;9.68;;;4.90;;
65982;SDS011;52740;40.620;-8.640;2022-07-06T01:38:29;21.63;;;5.78;;
65982;SDS011;52740;40.620;-8.640;2022-07-06T01:40:30;11.98;;;5.65;;
65982;SDS011;52740;40.620;-8.640;2022-07-06T01:42:31;10.55;;;5.53;;
65982;SDS011;52740;40.620;-8.640;2022-07-06T01:44:31;12.48;;;5.38;;
65982;SDS011;52740;40.620;-8.640;2022-07-06T01:46:34;13.35;;;5.57;;
65982;SDS011;52740;40.620;-8.640;2022-07-06T01:48:35;16.13;;;5.28;;
65982;SDS011;52740;40.620;-8.640;2022-07-06T01:50:36;13.38;;;5.28;;
65982;SDS011;52740;40.620;-8.640;2022-07-06T01:52:37;15.77;;;5.07;;
65982;SDS011;52740;40.620;-8.640;2022-07-06T01:54:38;16.67;;;5.50;;
65982;SDS011;52740;40.620;-8.640;2022-07-06T01:56:39;12.27;;;5.45;;
65982;SDS011;52740;40.620;-8.640;2022-07-06T01:58:40;12.25;;;5.95;;
65982;SDS011;52740;40.620;-8.640;2022-07-06T02:00:42;14.48;;;5.97;;
65982;SDS011;52740;40.620;-8.640;2022-07-06T02:02:43;12.95;;;6.10;;
65982;SDS011;52740;40.620;-8.640;2022-07-06T02:04:46;11.38;;;4.97;;
65982;SDS011;52740;40.620;-8.640;2022-07-06T02:06:46;10.25;;;4.53;;
65982;SDS011;52740;40.620;-8.640;2022-07-06T02:08:47;11.02;;;4.88;;
65982;SDS011;52740;40.620;-8.640;2022-07-06T02:10:48;15.98;;;6.00;;
65982;SDS011;52740;40.620;-8.640;2022-07-06T02:12:50;12.35;;;5.25;;
65982;SDS011;52740;40.620;-8.640;2022-07-06T02:14:51;14.43;;;5.75;;
65982;SDS011;52740;40.620;-8.640;2022-07-06T02:16:52;16.52;;;6.47;;
65982;SDS011;52740;40.620;-8.640;2022-07-06T02:18:52;12.13;;;6.38;;
65982;SDS011;52740;40.620;-8.640;2022-07-06T02:20:53;19.67;;;7.50;;
65982;SDS011;52740;40.620;-8.640;2022-07-06T02:22:54;20.30;;;6.45;;
65982;SDS011;52740;40.620;-8.640;2022-07-06T02:24:56;17.63;;;6.38;;
65982;SDS011;52740;40.620;-8.640;2022-07-06T02:26:56;21.27;;;7.22;;
65982;SDS011;52740;40.620;-8.640;2022-07-06T02:28:58;20.02;;;8.00;;
65982;SDS011;52740;40.620;-8.640;2022-07-06T02:30:58;18.77;;;6.25;;
65982;SDS011;52740;40.620;-8.640;2022-07-06T02:33:01;13.77;;;6.18;;
65982;SDS011;52740;40.620;-8.640;2022-07-06T02:35:02;14.63;;;6.30;;
65982;SDS011;52740;40.620;-8.640;2022-07-06T02:37:03;19.08;;;6.00;;
65982;SDS011;52740;40.620;-8.640;2022-07-06T02:39:04;14.10;;;6.53;;
65982;SDS011;52740;40.620;-8.640;2022-07-06T02:41:05;15.88;;;6.82;;
65982;SDS011;52740;40.620;-8.640;2022-07-06T02:43:07;21.95;;;6.68;;
65982;SDS011;52740;40.620;-8.640;2022-07-06T02:45:09;16.30;;;7.45;;
65982;SDS011;52740;40.620;-8.640;2022-07-06T02:47:10;23.92;;;8.40;;
65982;SDS011;52740;40.620;-8.640;2022-07-06T02:49:11;21.27;;;7.50;;
65982;SDS011;52740;40.620;-8.640;2022-07-06T02:51:12;21.83;;;7.82;;
65982;SDS011;52740;40.620;-8.640;2022-07-06T02:53:13;20.60;;;8.23;;
65982;SDS011;52740;40.620;-8.640;2022-07-06T02:55:14;18.65;;;8.00;;
65982;SDS011;52740;40.620;-8.640;2022-07-06T02:57:16;19.80;;;7.45;;
65982;SDS011;52740;40.620;-8.640;2022-07-06T02:59:17;21.15;;;7.45;;
65982;SDS011;52740;40.620;-8.640;2022-07-06T03:01:19;22.92;;;9.60;;
65982;SDS011;52740;40.620;-8.640;2022-07-06T03:03:20;24.35;;;9.13;;
65982;SDS011;52740;40.620;-8.640;2022-07-06T03:05:21;25.23;;;8.30;;
65982;SDS011;52740;40.620;-8.640;2022-07-06T03:07:22;24.70;;;8.80;;
65982;SDS011;52740;40.620;-8.640;2022-07-06T03:09:23;24.17;;;8.50;;
65982;SDS011;52740;40.620;-8.640;2022-07-06T03:11:24;26.65;;;9.93;;
65982;SDS011;52740;40.620;-8.640;2022-07-06T03:13:24;28.70;;;9.90;;
65982;SDS011;52740;40.620;-8.640;2022-07-06T03:15:25;31.17;;;10.63;;
65982;SDS011;52740;40.620;-8.640;2022-07-06T03:17:26;25.73;;;10.07;;
65982;SDS011;52740;40.620;-8.640;2022-07-06T03:19:27;24.80;;;8.93;;
65982;SDS011;52740;40.620;-8.640;2022-07-06T03:21:28;22.45;;;7.97;;
65982;SDS011;52740;40.620;-8.640;2022-07-06T03:23:29;25.85;;;9.70;;
65982;SDS011;52740;40.620;-8.640;2022-07-06T03:25:30;25.27;;;9.60;;
65982;SDS011;52740;40.620;-8.640;2022-07-06T03:27:33;24.33;;;9.07;;
65982;SDS011;52740;40.620;-8.640;2022-07-06T03:29:36;25.48;;;11.90;;
65982;SDS011;52740;40.620;-8.640;2022-07-06T03:31:38;31.42;;;11.80;;
65982;SDS011;52740;40.620;-8.640;2022-07-06T03:33:39;32.17;;;11.63;;
65982;SDS011;52740;40.620;-8.640;2022-07-06T03:35:40;25.60;;;10.18;;
65982;SDS011;52740;40.620;-8.640;2022-07-06T03:37:42;25.20;;;10.25;;
65982;SDS011;52740;40.620;-8.640;2022-07-06T03:39:43;25.05;;;9.77;;
65982;SDS011;52740;40.620;-8.640;2022-07-06T03:41:45;27.42;;;10.20;;
65982;SDS011;52740;40.620;-8.640;2022-07-06T03:43:45;26.60;;;9.90;;
65982;SDS011;52740;40.620;-8.640;2022-07-06T03:45:46;21.25;;;10.77;;
65982;SDS011;52740;40.620;-8.640;2022-07-06T03:47:47;19.55;;;8.32;;
65982;SDS011;52740;40.620;-8.640;2022-07-06T03:49:47;21.88;;;8.95;;
65982;SDS011;52740;40.620;-8.640;2022-07-06T03:51:48;22.25;;;8.85;;
65982;SDS011;52740;40.620;-8.640;2022-07-06T03:53:49;22.60;;;8.82;;
65982;SDS011;52740;40.620;-8.640;2022-07-06T03:55:50;23.77;;;9.50;;
65982;SDS011;52740;40.620;-8.640;2022-07-06T03:58:09;25.48;;;9.70;;
65982;SDS011;52740;40.620;-8.640;2022-07-06T04:00:13;21.67;;;9.48;;
65982;SDS011;52740;40.620;-8.640;2022-07-06T04:02:14;29.95;;;10.90;;
65982;SDS011;52740;40.620;-8.640;2022-07-06T04:04:16;30.00;;;12.40;;
65982;SDS011;52740;40.620;-8.640;2022-07-06T04:06:19;24.70;;;10.20;;
65982;SDS011;52740;40.620;-8.640;2022-07-06T04:08:20;28.02;;;9.88;;
65982;SDS011;52740;40.620;-8.640;2022-07-06T04:10:26;19.48;;;8.55;;
65982;SDS011;52740;40.620;-8.640;2022-07-06T04:12:29;22.17;;;9.30;;
65982;SDS011;52740;40.620;-8.640;2022-07-06T04:14:30;15.77;;;7.53;;
65982;SDS011;52740;40.620;-8.640;2022-07-06T04:16:31;24.75;;;9.25;;
65982;SDS011;52740;40.620;-8.640;2022-07-06T04:18:32;29.00;;;10.32;;
65982;SDS011;52740;40.620;-8.640;2022-07-06T04:20:33;23.23;;;9.48;;
65982;SDS011;52740;40.620;-8.640;2022-07-06T04:22:37;24.45;;;9.30;;
65982;SDS011;52740;40.620;-8.640;2022-07-06T04:24:39;28.27;;;10.90;;
65982;SDS011;52740;40.620;-8.640;2022-07-06T04:26:44;30.33;;;10.23;;
65982;SDS011;52740;40.620;-8.640;2022-07-06T04:28:44;30.77;;;10.68;;
65982;SDS011;52740;40.620;-8.640;2022-07-06T04:30:45;30.20;;;10.15;;
65982;SDS011;52740;40.620;-8.640;2022-07-06T04:32:50;22.80;;;9.63;;
65982;SDS011;52740;40.620;-8.640;2022-07-06T04:34:51;30.75;;;11.40;;
65982;SDS011;52740;40.620;-8.640;2022-07-06T04:36:52;29.33;;;10.82;;
65982;SDS011;52740;40.620;-8.640;2022-07-06T04:38:53;26.33;;;9.68;;
65982;SDS011;52740;40.620;-8.640;2022-07-06T04:40:54;25.77;;;10.88;;
65982;SDS011;52740;40.620;-8.640;2022-07-06T04:42:55;31.45;;;11.85;;
65982;SDS011;52740;40.620;-8.640;2022-07-06T04:44:56;33.90;;;11.35;;
65982;SDS011;52740;40.620;-8.640;2022-07-06T04:46:57;30.83;;;11.88;;
65982;SDS011;52740;40.620;-8.640;2022-07-06T04:48:58;27.83;;;11.93;;
65982;SDS011;52740;40.620;-8.640;2022-07-06T04:51:03;24.25;;;11.38;;
65982;SDS011;52740;40.620;-8.640;2022-07-06T04:53:04;26.70;;;10.43;;
65982;SDS011;52740;40.620;-8.640;2022-07-06T04:55:07;27.38;;;11.18;;
65982;SDS011;52740;40.620;-8.640;2022-07-06T04:57:09;29.55;;;10.90;;
65982;SDS011;52740;40.620;-8.640;2022-07-06T04:59:10;30.27;;;10.52;;
65982;SDS011;52740;40.620;-8.640;2022-07-06T05:01:11;29.33;;;11.15;;
65982;SDS011;52740;40.620;-8.640;2022-07-06T05:03:12;28.02;;;10.48;;
65982;SDS011;52740;40.620;-8.640;2022-07-06T05:05:12;30.80;;;11.05;;
65982;SDS011;52740;40.620;-8.640;2022-07-06T05:07:13;25.25;;;9.75;;
65982;SDS011;52740;40.620;-8.640;2022-07-06T05:09:14;25.73;;;10.13;;
65982;SDS011;52740;40.620;-8.640;2022-07-06T05:11:16;32.65;;;10.55;;
65982;SDS011;52740;40.620;-8.640;2022-07-06T05:13:18;30.05;;;11.00;;
65982;SDS011;52740;40.620;-8.640;2022-07-06T05:15:19;31.13;;;10.43;;
65982;SDS011;52740;40.620;-8.640;2022-07-06T05:17:19;25.80;;;10.13;;
65982;SDS011;52740;40.620;-8.640;2022-07-06T05:19:20;25.77;;;10.60;;
65982;SDS011;52740;40.620;-8.640;2022-07-06T05:21:22;30.13;;;10.57;;
65982;SDS011;52740;40.620;-8.640;2022-07-06T05:23:23;25.73;;;9.80;;
65982;SDS011;52740;40.620;-8.640;2022-07-06T05:25:24;23.02;;;9.45;;
65982;SDS011;52740;40.620;-8.640;2022-07-06T05:27:25;22.75;;;8.82;;
65982;SDS011;52740;40.620;-8.640;2022-07-06T05:29:27;23.98;;;10.07;;
65982;SDS011;52740;40.620;-8.640;2022-07-06T05:31:28;18.40;;;8.95;;
65982;SDS011;52740;40.620;-8.640;2022-07-06T05:33:30;22.92;;;9.60;;
65982;SDS011;52740;40.620;-8.640;2022-07-06T05:35:30;26.05;;;10.00;;
65982;SDS011;52740;40.620;-8.640;2022-07-06T05:37:33;28.92;;;11.50;;
65982;SDS011;52740;40.620;-8.640;2022-07-06T05:39:34;20.77;;;9.20;;
65982;SDS011;52740;40.620;-8.640;2022-07-06T05:41:35;23.52;;;10.25;;
65982;SDS011;52740;40.620;-8.640;2022-07-06T05:43:36;28.13;;;10.48;;
65982;SDS011;52740;40.620;-8.640;2022-07-06T05:45:37;29.30;;;10.43;;
65982;SDS011;52740;40.620;-8.640;2022-07-06T05:47:38;32.47;;;11.05;;
65982;SDS011;52740;40.620;-8.640;2022-07-06T05:49:58;33.40;;;12.50;;
65982;SDS011;52740;40.620;-8.640;2022-07-06T05:52:26;34.95;;;11.65;;
65982;SDS011;52740;40.620;-8.640;2022-07-06T05:54:27;38.53;;;12.48;;
65982;SDS011;52740;40.620;-8.640;2022-07-06T05:56:28;32.70;;;12.55;;
65982;SDS011;52740;40.620;-8.640;2022-07-06T05:58:29;34.13;;;11.93;;
65982;SDS011;52740;40.620;-8.640;2022-07-06T06:00:32;37.17;;;12.60;;
65982;SDS011;52740;40.620;-8.640;2022-07-06T06:02:39;33.53;;;12.60;;
65982;SDS011;52740;40.620;-8.640;2022-07-06T06:04:44;37.05;;;11.27;;
65982;SDS011;52740;40.620;-8.640;2022-07-06T06:06:44;41.08;;;13.82;;
65982;SDS011;52740;40.620;-8.640;2022-07-06T06:08:45;36.78;;;12.32;;
65982;SDS011;52740;40.620;-8.640;2022-07-06T06:10:46;36.13;;;13.93;;
65982;SDS011;52740;40.620;-8.640;2022-07-06T06:12:51;36.67;;;13.43;;
65982;SDS011;52740;40.620;-8.640;2022-07-06T06:14:51;41.10;;;12.88;;
65982;SDS011;52740;40.620;-8.640;2022-07-06T06:16:52;33.20;;;13.43;;
65982;SDS011;52740;40.620;-8.640;2022-07-06T06:18:53;35.15;;;12.70;;
65982;SDS011;52740;40.620;-8.640;2022-07-06T06:20:54;34.72;;;12.20;;
65982;SDS011;52740;40.620;-8.640;2022-07-06T06:22:55;37.55;;;12.45;;
65982;SDS011;52740;40.620;-8.640;2022-07-06T06:24:57;33.47;;;12.93;;
65982;SDS011;52740;40.620;-8.640;2022-07-06T06:26:58;29.98;;;13.02;;
65982;SDS011;52740;40.620;-8.640;2022-07-06T06:29:02;30.00;;;12.75;;
65982;SDS011;52740;40.620;-8.640;2022-07-06T06:31:02;38.90;;;13.25;;
65982;SDS011;52740;40.620;-8.640;2022-07-06T06:35:12;40.40;;;14.05;;
65982;SDS011;52740;40.620;-8.640;2022-07-06T06:37:13;33.78;;;12.35;;
65982;SDS011;52740;40.620;-8.640;2022-07-06T06:39:14;33.30;;;12.90;;
65982;SDS011;52740;40.620;-8.640;2022-07-06T06:41:14;41.90;;;13.02;;
65982;SDS011;52740;40.620;-8.640;2022-07-06T06:43:15;30.83;;;12.68;;
65982;SDS011;52740;40.620;-8.640;2022-07-06T06:45:51;30.42;;;12.40;;
65982;SDS011;52740;40.620;-8.640;2022-07-06T06:47:52;35.78;;;12.13;;
65982;SDS011;52740;40.620;-8.640;2022-07-06T06:49:52;33.80;;;12.48;;
65982;SDS011;52740;40.620;-8.640;2022-07-06T06:51:53;26.75;;;11.07;;
65982;SDS011;52740;40.620;-8.640;2022-07-06T06:53:54;33.13;;;12.52;;
65982;SDS011;52740;40.620;-8.640;2022-07-06T06:55:54;38.97;;;13.57;;
65982;SDS011;52740;40.620;-8.640;2022-07-06T06:57:55;32.60;;;13.05;;
65982;SDS011;52740;40.620;-8.640;2022-07-06T06:59:56;25.73;;;12.77;;
65982;SDS011;52740;40.620;-8.640;2022-07-06T07:01:57;33.00;;;12.85;;
65982;SDS011;52740;40.620;-8.640;2022-07-06T07:03:58;29.20;;;12.13;;
65982;SDS011;52740;40.620;-8.640;2022-07-06T07:05:59;29.45;;;12.45;;
65982;SDS011;52740;40.620;-8.640;2022-07-06T07:08:00;27.55;;;11.90;;
65982;SDS011;52740;40.620;-8.640;2022-07-06T07:10:01;20.65;;;11.15;;
65982;SDS011;52740;40.620;-8.640;2022-07-06T07:12:04;28.73;;;11.20;;
65982;SDS011;52740;40.620;-8.640;2022-07-06T07:14:05;25.52;;;11.63;;
65982;SDS011;52740;40.620;-8.640;2022-07-06T07:16:06;28.38;;;10.75;;
65982;SDS011;52740;40.620;-8.640;2022-07-06T07:18:06;21.48;;;11.45;;
65982;SDS011;52740;40.620;-8.640;2022-07-06T07:20:07;25.88;;;11.57;;
65982;SDS011;52740;40.620;-8.640;2022-07-06T07:22:09;26.75;;;11.80;;
65982;SDS011;52740;40.620;-8.640;2022-07-06T07:24:10;30.70;;;11.73;;
65982;SDS011;52740;40.620;-8.640;2022-07-06T07:26:11;20.05;;;10.98;;
65982;SDS011;52740;40.620;-8.640;2022-07-06T07:28:11;21.83;;;11.77;;
65982;SDS011;52740;40.620;-8.640;2022-07-06T07:30:12;20.17;;;10.88;;
65982;SDS011;52740;40.620;-8.640;2022-07-06T07:32:13;23.02;;;10.88;;
65982;SDS011;52740;40.620;-8.640;2022-07-06T07:34:14;22.20;;;10.35;;
65982;SDS011;52740;40.620;-8.640;2022-07-06T07:36:14;24.27;;;11.18;;
65982;SDS011;52740;40.620;-8.640;2022-07-06T07:38:15;21.77;;;10.25;;
65982;SDS011;52740;40.620;-8.640;2022-07-06T07:40:16;22.05;;;10.57;;
65982;SDS011;52740;40.620;-8.640;2022-07-06T07:42:17;20.83;;;9.35;;
65982;SDS011;52740;40.620;-8.640;2022-07-06T07:44:17;16.67;;;8.90;;
65982;SDS011;52740;40.620;-8.640;2022-07-06T07:46:18;25.77;;;9.48;;
65982;SDS011;52740;40.620;-8.640;2022-07-06T07:48:19;26.48;;;12.45;;
65982;SDS011;52740;40.620;-8.640;2022-07-06T07:50:20;17.80;;;9.18;;
65982;SDS011;52740;40.620;-8.640;2022-07-06T07:52:21;16.05;;;8.80;;
65982;SDS011;52740;40.620;-8.640;2022-07-06T07:54:22;19.00;;;9.23;;
65982;SDS011;52740;40.620;-8.640;2022-07-06T07:56:22;13.85;;;9.40;;
65982;SDS011;52740;40.620;-8.640;2022-07-06T07:58:23;17.15;;;9.35;;
65982;SDS011;52740;40.620;-8.640;2022-07-06T08:00:24;18.10;;;9.07;;
65982;SDS011;52740;40.620;-8.640;2022-07-06T08:02:26;21.23;;;9.30;;
65982;SDS011;52740;40.620;-8.640;2022-07-06T08:04:27;19.60;;;9.85;;
65982;SDS011;52740;40.620;-8.640;2022-07-06T08:06:27;12.02;;;8.40;;
65982;SDS011;52740;40.620;-8.640;2022-07-06T08:08:28;17.90;;;9.90;;
65982;SDS011;52740;40.620;-8.640;2022-07-06T08:10:29;14.82;;;9.75;;
65982;SDS011;52740;40.620;-8.640;2022-07-06T08:12:30;16.33;;;10.02;;
65982;SDS011;52740;40.620;-8.640;2022-07-06T08:14:31;14.30;;;9.10;;
65982;SDS011;52740;40.620;-8.640;2022-07-06T08:16:32;18.80;;;9.85;;
65982;SDS011;52740;40.620;-8.640;2022-07-06T08:18:32;16.52;;;8.73;;
65982;SDS011;52740;40.620;-8.640;2022-07-06T08:20:34;17.20;;;9.35;;
65982;SDS011;52740;40.620;-8.640;2022-07-06T08:22:35;18.70;;;9.57;;
65982;SDS011;52740;40.620;-8.640;2022-07-06T08:24:36;18.17;;;9.55;;
65982;SDS011;52740;40.620;-8.640;2022-07-06T08:26:37;16.55;;;9.88;;
65982;SDS011;52740;40.620;-8.640;2022-07-06T08:28:38;15.55;;;9.00;;
65982;SDS011;52740;40.620;-8.640;2022-07-06T08:30:38;25.00;;;9.00;;
65982;SDS011;52740;40.620;-8.640;2022-07-06T08:32:42;18.00;;;9.68;;
65982;SDS011;52740;40.620;-8.640;2022-07-06T08:34:43;16.92;;;9.35;;
65982;SDS011;52740;40.620;-8.640;2022-07-06T08:36:45;17.30;;;9.00;;
65982;SDS011;52740;40.620;-8.640;2022-07-06T08:38:46;19.50;;;10.23;;
65982;SDS011;52740;40.620;-8.640;2022-07-06T08:40:49;16.77;;;9.98;;
65982;SDS011;52740;40.620;-8.640;2022-07-06T08:42:52;21.23;;;10.90;;
65982;SDS011;52740;40.620;-8.640;2022-07-06T08:44:54;27.13;;;11.63;;
65982;SDS011;52740;40.620;-8.640;2022-07-06T08:46:57;19.48;;;10.43;;
65982;SDS011;52740;40.620;-8.640;2022-07-06T08:49:02;17.98;;;10.00;;
65982;SDS011;52740;40.620;-8.640;2022-07-06T08:51:05;21.88;;;10.63;;
65982;SDS011;52740;40.620;-8.640;2022-07-06T08:53:07;22.02;;;10.65;;
65982;SDS011;52740;40.620;-8.640;2022-07-06T08:55:08;21.60;;;10.30;;
65982;SDS011;52740;40.620;-8.640;2022-07-06T08:57:09;23.92;;;12.27;;
65982;SDS011;52740;40.620;-8.640;2022-07-06T08:59:10;27.38;;;12.38;;
65982;SDS011;52740;40.620;-8.640;2022-07-06T09:01:11;22.73;;;10.15;;
65982;SDS011;52740;40.620;-8.640;2022-07-06T09:03:12;21.83;;;10.88;;
65982;SDS011;52740;40.620;-8.640;2022-07-06T09:05:14;22.80;;;10.68;;
65982;SDS011;52740;40.620;-8.640;2022-07-06T09:07:16;23.20;;;11.15;;
65982;SDS011;52740;40.620;-8.640;2022-07-06T09:09:21;18.40;;;10.27;;
65982;SDS011;52740;40.620;-8.640;2022-07-06T09:11:24;21.55;;;10.63;;
65982;SDS011;52740;40.620;-8.640;2022-07-06T09:13:28;25.73;;;11.40;;
65982;SDS011;52740;40.620;-8.640;2022-07-06T09:15:28;20.77;;;10.00;;
65982;SDS011;52740;40.620;-8.640;2022-07-06T09:17:29;17.92;;;10.98;;
65982;SDS011;52740;40.620;-8.640;2022-07-06T09:19:30;26.58;;;11.27;;
65982;SDS011;52740;40.620;-8.640;2022-07-06T09:21:32;24.50;;;11.07;;
65982;SDS011;52740;40.620;-8.640;2022-07-06T09:23:37;22.23;;;9.90;;
65982;SDS011;52740;40.620;-8.640;2022-07-06T09:25:38;17.42;;;9.80;;
65982;SDS011;52740;40.620;-8.640;2022-07-06T09:27:43;22.88;;;11.13;;
65982;SDS011;52740;40.620;-8.640;2022-07-06T09:29:50;15.75;;;9.43;;
65982;SDS011;52740;40.620;-8.640;2022-07-06T09:31:59;19.33;;;9.15;;
65982;SDS011;52740;40.620;-8.640;2022-07-06T09:34:03;13.95;;;8.70;;
65982;SDS011;52740;40.620;-8.640;2022-07-06T09:36:10;18.90;;;8.27;;
65982;SDS011;52740;40.620;-8.640;2022-07-06T09:38:12;21.42;;;9.20;;
65982;SDS011;52740;40.620;-8.640;2022-07-06T09:40:17;13.00;;;7.95;;
65982;SDS011;52740;40.620;-8.640;2022-07-06T09:42:23;16.83;;;8.70;;
65982;SDS011;52740;40.620;-8.640;2022-07-06T09:44:32;16.40;;;7.53;;
65982;SDS011;52740;40.620;-8.640;2022-07-06T09:46:39;11.55;;;7.20;;
65982;SDS011;52740;40.620;-8.640;2022-07-06T09:48:41;12.70;;;7.10;;
65982;SDS011;52740;40.620;-8.640;2022-07-06T09:50:45;10.07;;;7.38;;
65982;SDS011;52740;40.620;-8.640;2022-07-06T09:52:53;11.07;;;7.40;;
65982;SDS011;52740;40.620;-8.640;2022-07-06T09:54:55;12.40;;;6.63;;
65982;SDS011;52740;40.620;-8.640;2022-07-06T09:56:56;11.07;;;8.23;;
65982;SDS011;52740;40.620;-8.640;2022-07-06T09:58:58;12.48;;;6.93;;
65982;SDS011;52740;40.620;-8.640;2022-07-06T10:00:58;14.48;;;7.15;;
65982;SDS011;52740;40.620;-8.640;2022-07-06T10:02:59;10.93;;;7.07;;
65982;SDS011;52740;40.620;-8.640;2022-07-06T10:05:00;11.13;;;6.40;;
65982;SDS011;52740;40.620;-8.640;2022-07-06T10:07:02;11.10;;;6.97;;
65982;SDS011;52740;40.620;-8.640;2022-07-06T10:09:07;7.65;;;6.07;;
65982;SDS011;52740;40.620;-8.640;2022-07-06T10:11:10;8.73;;;6.50;;
65982;SDS011;52740;40.620;-8.640;2022-07-06T10:13:14;9.48;;;6.07;;
65982;SDS011;52740;40.620;-8.640;2022-07-06T10:15:21;12.32;;;6.28;;
65982;SDS011;52740;40.620;-8.640;2022-07-06T10:17:23;8.55;;;5.97;;
65982;SDS011;52740;40.620;-8.640;2022-07-06T10:19:26;8.48;;;5.53;;
65982;SDS011;52740;40.620;-8.640;2022-07-06T10:21:28;7.72;;;4.90;;
65982;SDS011;52740;40.620;-8.640;2022-07-06T10:23:29;7.43;;;4.85;;
65982;SDS011;52740;40.620;-8.640;2022-07-06T10:25:30;6.22;;;4.93;;
65982;SDS011;52740;40.620;-8.640;2022-07-06T10:27:32;8.02;;;4.95;;
65982;SDS011;52740;40.620;-8.640;2022-07-06T10:29:35;7.72;;;4.40;;
65982;SDS011;52740;40.620;-8.640;2022-07-06T10:31:37;5.07;;;4.32;;
65982;SDS011;52740;40.620;-8.640;2022-07-06T10:33:41;7.07;;;4.63;;
65982;SDS011;52740;40.620;-8.640;2022-07-06T10:35:43;6.07;;;5.05;;
65982;SDS011;52740;40.620;-8.640;2022-07-06T10:37:45;5.05;;;4.47;;
65982;SDS011;52740;40.620;-8.640;2022-07-06T10:40:03;5.80;;;4.00;;
65982;SDS011;52740;40.620;-8.640;2022-07-06T10:42:38;5.60;;;4.40;;
65982;SDS011;52740;40.620;-8.640;2022-07-06T10:44:44;4.25;;;3.80;;
65982;SDS011;52740;40.620;-8.640;2022-07-06T10:46:55;5.05;;;4.03;;
65982;SDS011;52740;40.620;-8.640;2022-07-06T10:48:59;5.10;;;3.63;;
65982;SDS011;52740;40.620;-8.640;2022-07-06T10:51:28;4.85;;;4.25;;
65982;SDS011;52740;40.620;-8.640;2022-07-06T10:53:33;4.28;;;3.88;;
65982;SDS011;52740;40.620;-8.640;2022-07-06T10:55:36;5.00;;;4.18;;
65982;SDS011;52740;40.620;-8.640;2022-07-06T10:57:51;6.20;;;4.23;;
65982;SDS011;52740;40.620;-8.640;2022-07-06T11:00:02;6.82;;;4.15;;
65982;SDS011;52740;40.620;-8.640;2022-07-06T11:02:14;3.70;;;3.40;;
65982;SDS011;52740;40.620;-8.640;2022-07-06T11:04:16;3.47;;;3.17;;
65982;SDS011;52740;40.620;-8.640;2022-07-06T11:06:23;4.47;;;4.00;;
65982;SDS011;52740;40.620;-8.640;2022-07-06T11:10:46;4.38;;;3.97;;
65982;SDS011;52740;40.620;-8.640;2022-07-06T11:12:48;3.90;;;3.50;;
65982;SDS011;52740;40.620;-8.640;2022-07-06T11:14:59;5.55;;;4.05;;
65982;SDS011;52740;40.620;-8.640;2022-07-06T11:17:02;4.25;;;3.60;;
65982;SDS011;52740;40.620;-8.640;2022-07-06T11:21:22;3.90;;;3.60;;
65982;SDS011;52740;40.620;-8.640;2022-07-06T11:23:23;5.88;;;3.90;;
65982;SDS011;52740;40.620;-8.640;2022-07-06T11:25:24;5.88;;;4.00;;
65982;SDS011;52740;40.620;-8.640;2022-07-06T11:27:25;14.43;;;4.20;;
65982;SDS011;52740;40.620;-8.640;2022-07-06T11:29:27;3.72;;;3.42;;
65982;SDS011;52740;40.620;-8.640;2022-07-06T11:31:28;4.10;;;3.70;;
65982;SDS011;52740;40.620;-8.640;2022-07-06T11:33:29;4.03;;;3.63;;
65982;SDS011;52740;40.620;-8.640;2022-07-06T11:35:31;3.10;;;2.80;;
65982;SDS011;52740;40.620;-8.640;2022-07-06T11:37:31;4.95;;;3.55;;
65982;SDS011;52740;40.620;-8.640;2022-07-06T11:39:33;3.67;;;3.38;;
65982;SDS011;52740;40.620;-8.640;2022-07-06T11:41:35;6.17;;;3.63;;
65982;SDS011;52740;40.620;-8.640;2022-07-06T11:43:42;4.07;;;3.17;;
65982;SDS011;52740;40.620;-8.640;2022-07-06T11:45:45;2.78;;;2.58;;
65982;SDS011;52740;40.620;-8.640;2022-07-06T11:47:46;5.97;;;3.10;;
65982;SDS011;52740;40.620;-8.640;2022-07-06T11:49:48;4.50;;;3.10;;
65982;SDS011;52740;40.620;-8.640;2022-07-06T11:53:54;3.97;;;3.33;;
65982;SDS011;52740;40.620;-8.640;2022-07-06T11:56:01;4.75;;;3.50;;
65982;SDS011;52740;40.620;-8.640;2022-07-06T11:58:03;3.97;;;3.45;;
65982;SDS011;52740;40.620;-8.640;2022-07-06T12:00:04;4.72;;;3.55;;
65982;SDS011;52740;40.620;-8.640;2022-07-06T12:02:14;4.43;;;3.45;;
65982;SDS011;52740;40.620;-8.640;2022-07-06T12:04:15;4.13;;;2.97;;